createdAt,value
2018-10-09T00:01:40.813Z,12.52
2018-10-09T00:04:08.534Z,12.45
2018-10-09T00:06:36.446Z,12.70
2018-10-09T00:09:05.749Z,12.68
2018-10-09T00:11:33.558Z,12.66
2018-10-09T00:14:01.245Z,12.42
2018-10-09T00:16:28.965Z,12.47
2018-10-09T00:18:56.649Z,12.27
2018-10-09T00:21:24.750Z,12.37
2018-10-09T00:23:52.446Z,12.39
2018-10-09T00:26:20.149Z,12.33
2018-10-09T00:28:47.834Z,12.42
2018-10-09T00:31:15.535Z,12.42
2018-10-09T00:33:43.240Z,12.48
2018-10-09T00:36:10.932Z,12.58
2018-10-09T00:38:38.626Z,12.37
2018-10-09T00:41:06.438Z,11.94
2018-10-09T00:43:34.181Z,12.10
2018-10-09T00:46:01.946Z,12.17
2018-10-09T00:48:29.851Z,11.95
2018-10-09T00:50:57.626Z,11.89
2018-10-09T00:53:25.338Z,11.76
2018-10-09T00:55:53.059Z,12.03
2018-10-09T00:58:20.809Z,12.04
2018-10-09T01:00:48.525Z,11.86
2018-10-09T01:03:16.291Z,11.87
2018-10-09T01:05:43.980Z,12.06
2018-10-09T01:08:11.690Z,12.00
2018-10-09T01:10:39.381Z,12.02
2018-10-09T01:13:07.153Z,12.31
2018-10-09T01:15:34.940Z,12.26
2018-10-09T01:18:02.699Z,11.92
2018-10-09T01:20:34.082Z,11.91
2018-10-09T01:23:03.682Z,12.23
2018-10-09T01:25:31.419Z,12.24
2018-10-09T01:27:59.405Z,12.25
2018-10-09T01:30:27.114Z,12.21
2018-10-09T01:32:54.942Z,12.08
2018-10-09T01:35:22.653Z,11.78
2018-10-09T01:37:50.346Z,11.87
2018-10-09T01:40:18.062Z,11.98
2018-10-09T01:42:45.778Z,12.37
2018-10-09T01:45:13.493Z,12.17
2018-10-09T01:47:41.198Z,11.96
2018-10-09T01:50:08.909Z,11.97
2018-10-09T01:52:36.597Z,11.89
2018-10-09T01:55:04.609Z,11.88
2018-10-09T01:57:32.301Z,12.39
2018-10-09T01:59:59.985Z,12.24
2018-10-09T02:02:27.689Z,12.13
2018-10-09T02:04:55.386Z,12.46
2018-10-09T02:07:23.118Z,12.16
2018-10-09T02:09:50.837Z,12.00
2018-10-09T02:12:18.580Z,12.41
2018-10-09T02:14:46.289Z,12.21
2018-10-09T02:17:14.024Z,12.37
2018-10-09T02:19:41.705Z,12.60
2018-10-09T02:22:09.394Z,12.19
2018-10-09T02:24:37.094Z,12.39
2018-10-09T02:27:04.789Z,12.42
2018-10-09T02:29:32.486Z,12.36
2018-10-09T02:32:00.172Z,12.29
2018-10-09T02:34:27.878Z,12.46
2018-10-09T02:36:55.584Z,12.54
2018-10-09T02:39:23.283Z,12.47
2018-10-09T02:41:50.969Z,12.44
2018-10-09T02:44:18.708Z,12.58
2018-10-09T02:46:46.409Z,12.48
2018-10-09T02:49:14.113Z,12.60
2018-10-09T02:51:41.829Z,12.57
2018-10-09T02:54:09.522Z,12.57
2018-10-09T02:56:37.210Z,12.41
2018-10-09T02:59:05.013Z,12.56
2018-10-09T03:01:32.717Z,12.45
2018-10-09T03:04:00.421Z,12.46
2018-10-09T03:06:30.917Z,12.62
2018-10-09T03:08:58.693Z,12.59
2018-10-09T03:11:32.422Z,12.68
2018-10-09T03:14:00.857Z,12.63
2018-10-09T03:16:29.165Z,12.68
2018-10-09T03:18:57.033Z,12.42
2018-10-09T03:21:24.722Z,12.57
2018-10-09T03:23:52.416Z,12.69
2018-10-09T03:26:20.126Z,12.56
2018-10-09T03:28:47.849Z,12.55
2018-10-09T03:31:15.558Z,12.34
2018-10-09T03:33:43.253Z,12.25
2018-10-09T03:36:10.950Z,12.36
2018-10-09T03:38:38.645Z,12.67
2018-10-09T03:41:06.746Z,12.38
2018-10-09T03:43:34.453Z,12.51
2018-10-09T03:46:02.177Z,12.60
2018-10-09T03:48:29.855Z,12.74
2018-10-09T03:50:57.554Z,12.85
2018-10-09T03:53:25.349Z,12.86
2018-10-09T03:55:53.038Z,13.04
2018-10-09T03:58:20.765Z,12.89
2018-10-09T04:00:48.478Z,13.01
2018-10-09T04:03:16.182Z,13.04
2018-10-09T04:05:43.906Z,12.99
2018-10-09T04:08:11.621Z,12.66
2018-10-09T04:10:39.305Z,12.76
2018-10-09T04:13:07.027Z,12.98
2018-10-09T04:15:37.541Z,13.05
2018-10-09T04:18:05.280Z,12.98
2018-10-09T04:20:33.010Z,12.99
2018-10-09T04:23:00.703Z,12.86
2018-10-09T04:25:28.390Z,12.95
2018-10-09T04:27:56.135Z,12.96
2018-10-09T04:30:23.846Z,12.93
2018-10-09T04:32:51.542Z,12.93
2018-10-09T04:35:19.298Z,12.94
2018-10-09T04:37:47.069Z,13.10
2018-10-09T04:40:14.786Z,12.98
2018-10-09T04:42:42.678Z,13.00
2018-10-09T04:45:10.485Z,13.01
2018-10-09T04:47:38.262Z,13.08
2018-10-09T04:50:06.090Z,13.07
2018-10-09T04:52:33.785Z,12.99
2018-10-09T04:55:01.490Z,13.04
2018-10-09T04:57:29.187Z,13.05
2018-10-09T04:59:56.876Z,13.07
2018-10-09T05:02:24.581Z,13.08
2018-10-09T05:04:52.268Z,13.03
2018-10-09T05:07:20.131Z,13.18
2018-10-09T05:09:47.866Z,13.27
2018-10-09T05:12:15.627Z,13.22
2018-10-09T05:14:43.311Z,13.34
2018-10-09T05:17:11.009Z,13.36
2018-10-09T05:19:38.713Z,13.35
2018-10-09T05:22:06.682Z,13.34
2018-10-09T05:24:34.377Z,13.40
2018-10-09T05:27:02.173Z,13.36
2018-10-09T05:29:29.885Z,13.47
2018-10-09T05:31:57.594Z,13.61
2018-10-09T05:34:25.561Z,13.53
2018-10-09T05:36:53.263Z,13.48
2018-10-09T05:39:20.973Z,13.60
2018-10-09T05:41:48.746Z,13.65
2018-10-09T05:44:16.494Z,13.59
2018-10-09T05:46:44.217Z,13.80
2018-10-09T05:49:11.922Z,13.84
2018-10-09T05:51:39.642Z,13.94
2018-10-09T05:54:07.808Z,13.96
2018-10-09T05:56:35.514Z,14.92
2018-10-09T05:59:03.274Z,15.68
2018-10-09T06:01:31.419Z,16.05
2018-10-09T06:03:59.111Z,15.77
2018-10-09T06:06:26.842Z,14.86
2018-10-09T06:08:54.581Z,14.68
2018-10-09T06:11:22.270Z,14.59
2018-10-09T06:13:49.980Z,14.54
2018-10-09T06:16:17.680Z,14.53
2018-10-09T06:18:45.433Z,14.60
2018-10-09T06:21:13.155Z,14.60
2018-10-09T06:23:40.870Z,14.60
2018-10-09T06:26:08.565Z,14.67
2018-10-09T06:28:36.346Z,14.70
2018-10-09T06:31:04.107Z,14.72
2018-10-09T06:33:31.810Z,14.97
2018-10-09T06:35:59.557Z,15.00
2018-10-09T06:38:27.298Z,14.97
2018-10-09T06:40:55.002Z,15.06
2018-10-09T06:43:22.753Z,15.11
2018-10-09T06:45:50.469Z,15.15
2018-10-09T06:48:18.188Z,15.30
2018-10-09T06:50:45.897Z,15.37
2018-10-09T06:53:13.686Z,15.45
2018-10-09T06:55:41.389Z,15.53
2018-10-09T06:58:09.102Z,15.60
2018-10-09T07:00:36.820Z,15.67
2018-10-09T07:03:04.603Z,15.61
2018-10-09T07:05:32.326Z,15.64
2018-10-09T07:08:00.149Z,15.72
2018-10-09T07:10:27.874Z,15.74
2018-10-09T07:12:55.644Z,15.79
2018-10-09T07:15:23.375Z,15.89
2018-10-09T07:17:51.114Z,15.92
2018-10-09T07:20:18.845Z,15.98
2018-10-09T07:22:46.560Z,16.05
2018-10-09T07:25:14.481Z,16.19
2018-10-09T07:27:42.235Z,16.31
2018-10-09T07:30:10.425Z,16.33
2018-10-09T07:32:38.130Z,16.40
2018-10-09T07:35:06.844Z,16.44
2018-10-09T07:37:34.640Z,16.59
2018-10-09T07:40:02.386Z,16.70
2018-10-09T07:42:30.096Z,16.65
2018-10-09T07:44:57.829Z,16.72
2018-10-09T07:47:25.550Z,16.75
2018-10-09T07:49:53.250Z,16.79
2018-10-09T07:52:21.025Z,16.92
2018-10-09T07:54:48.726Z,16.95
2018-10-09T07:57:16.451Z,17.10
2018-10-09T07:59:44.237Z,17.12
2018-10-09T08:02:11.965Z,17.24
2018-10-09T08:04:39.696Z,17.23
2018-10-09T08:07:07.410Z,17.38
2018-10-09T08:09:35.162Z,17.50
2018-10-09T08:12:02.939Z,17.44
2018-10-09T08:14:30.657Z,17.38
2018-10-09T08:16:58.429Z,17.38
2018-10-09T08:19:26.486Z,17.78
2018-10-09T08:21:54.194Z,17.92
2018-10-09T08:24:21.915Z,18.30
2018-10-09T08:26:49.605Z,18.60
2018-10-09T08:29:17.318Z,18.43
2018-10-09T08:31:45.058Z,18.83
2018-10-09T08:34:12.884Z,19.18
2018-10-09T08:36:40.610Z,19.03
2018-10-09T08:39:08.337Z,19.19
2018-10-09T08:41:36.087Z,19.20
2018-10-09T08:44:03.791Z,19.21
2018-10-09T08:46:31.520Z,18.98
2018-10-09T08:48:59.258Z,19.22
2018-10-09T08:51:26.970Z,19.05
2018-10-09T08:53:54.695Z,19.21
2018-10-09T08:56:22.454Z,19.25
2018-10-09T08:58:50.165Z,18.97
2018-10-09T09:01:17.923Z,18.83
2018-10-09T09:03:45.631Z,18.83
2018-10-09T09:06:13.349Z,18.62
2018-10-09T09:08:41.065Z,19.28
2018-10-09T09:11:08.797Z,19.71
2018-10-09T09:13:36.527Z,18.98
2018-10-09T09:16:04.283Z,18.82
2018-10-09T09:18:32.848Z,18.95
2018-10-09T09:21:00.615Z,18.90
2018-10-09T09:23:28.309Z,18.92
2018-10-09T09:25:56.326Z,19.02
2018-10-09T09:28:24.113Z,19.00
2018-10-09T09:30:51.879Z,19.04
2018-10-09T09:33:19.744Z,19.17
2018-10-09T09:35:47.391Z,19.26
2018-10-09T09:38:15.094Z,19.15
2018-10-09T09:40:42.902Z,19.05
2018-10-09T09:43:10.598Z,19.14
2018-10-09T09:45:38.323Z,19.36
2018-10-09T09:48:06.596Z,19.79
2018-10-09T09:50:34.290Z,19.97
2018-10-09T09:53:02.007Z,19.74
2018-10-09T09:55:29.738Z,19.31
2018-10-09T09:57:57.574Z,19.20
2018-10-09T10:00:30.731Z,19.23
2018-10-09T10:02:58.466Z,19.28
2018-10-09T10:05:26.326Z,19.41
2018-10-09T10:07:54.044Z,19.31
2018-10-09T10:10:21.770Z,19.36
2018-10-09T10:12:49.435Z,19.58
2018-10-09T10:15:17.193Z,19.80
2018-10-09T10:17:44.976Z,19.80
2018-10-09T10:20:13.206Z,19.81
2018-10-09T10:22:40.996Z,19.86
2018-10-09T10:25:08.746Z,19.93
2018-10-09T10:27:36.544Z,20.01
2018-10-09T10:30:04.529Z,20.23
2018-10-09T10:32:32.254Z,20.29
2018-10-09T10:34:59.954Z,20.26
2018-10-09T10:37:27.773Z,20.20
2018-10-09T10:39:55.570Z,20.33
2018-10-09T10:42:23.312Z,20.27
2018-10-09T10:44:51.026Z,20.08
2018-10-09T10:47:18.842Z,20.15
2018-10-09T10:49:46.571Z,20.19
2018-10-09T10:52:14.307Z,20.19
2018-10-09T10:54:42.030Z,20.21
2018-10-09T10:57:09.762Z,20.24
2018-10-09T10:59:37.527Z,20.18
2018-10-09T11:02:05.286Z,20.49
2018-10-09T11:04:33.011Z,20.41
2018-10-09T11:07:00.732Z,20.41
2018-10-09T11:09:28.458Z,20.44
2018-10-09T11:11:56.181Z,20.46
2018-10-09T11:14:23.909Z,20.55
2018-10-09T11:16:51.633Z,20.48
2018-10-09T11:19:19.351Z,20.58
2018-10-09T11:21:47.070Z,20.63
2018-10-09T11:24:14.839Z,20.66
2018-10-09T11:26:42.650Z,20.62
2018-10-09T11:29:10.425Z,20.78
2018-10-09T11:31:38.125Z,20.60
2018-10-09T11:34:06.002Z,20.65
2018-10-09T11:36:33.925Z,20.78
2018-10-09T11:39:01.679Z,20.89
2018-10-09T11:41:29.421Z,20.96
2018-10-09T11:43:57.139Z,21.11
2018-10-09T11:46:24.858Z,20.85
2018-10-09T11:48:52.591Z,20.92
2018-10-09T11:51:20.317Z,21.14
2018-10-09T11:53:48.109Z,21.15
2018-10-09T11:56:15.869Z,21.26
2018-10-09T11:58:43.641Z,21.23
2018-10-09T12:01:11.399Z,21.20
2018-10-09T12:03:39.115Z,21.09
2018-10-09T12:06:07.032Z,20.98
2018-10-09T12:08:34.845Z,20.81
2018-10-09T12:11:02.572Z,20.93
2018-10-09T12:13:30.311Z,21.06
2018-10-09T12:15:58.132Z,20.93
2018-10-09T12:18:25.814Z,20.94
2018-10-09T12:20:53.559Z,20.78
2018-10-09T12:23:21.322Z,20.98
2018-10-09T12:25:49.055Z,20.96
2018-10-09T12:28:16.782Z,20.86
2018-10-09T12:30:44.522Z,21.13
2018-10-09T12:33:12.289Z,21.12
2018-10-09T12:35:40.083Z,21.06
2018-10-09T12:38:07.807Z,21.16
2018-10-09T12:40:35.528Z,21.21
2018-10-09T12:43:03.253Z,21.13
2018-10-09T12:45:30.974Z,21.29
2018-10-09T12:47:59.018Z,21.29
2018-10-09T12:50:26.721Z,21.33
2018-10-09T12:52:54.427Z,21.32
2018-10-09T12:55:22.165Z,21.28
2018-10-09T12:57:49.918Z,21.25
2018-10-09T13:00:17.663Z,21.19
2018-10-09T13:02:45.365Z,21.14
2018-10-09T13:05:13.096Z,21.18
2018-10-09T13:07:40.830Z,21.25
2018-10-09T13:10:08.606Z,21.24
2018-10-09T13:12:36.349Z,21.29
2018-10-09T13:15:04.318Z,21.20
2018-10-09T13:17:32.060Z,21.18
2018-10-09T13:19:59.759Z,21.20
2018-10-09T13:22:27.813Z,21.14
2018-10-09T13:24:55.218Z,21.08
2018-10-09T13:27:23.058Z,20.89
2018-10-09T13:29:50.771Z,21.04
2018-10-09T13:32:19.328Z,21.11
2018-10-09T13:34:47.037Z,21.02
2018-10-09T13:37:14.819Z,21.07
2018-10-09T13:39:42.519Z,21.04
2018-10-09T13:42:10.251Z,21.01
2018-10-09T13:44:37.959Z,21.04
2018-10-09T13:47:05.927Z,21.00
2018-10-09T13:49:33.620Z,21.47
2018-10-09T13:52:01.346Z,22.13
2018-10-09T13:54:29.149Z,22.21
2018-10-09T13:56:56.846Z,22.60
2018-10-09T13:59:24.578Z,22.85
2018-10-09T14:01:52.615Z,23.06
2018-10-09T14:04:20.342Z,23.25
2018-10-09T14:06:48.074Z,23.19
2018-10-09T14:09:15.828Z,23.43
2018-10-09T14:11:43.552Z,23.45
2018-10-09T14:14:11.315Z,23.47
2018-10-09T14:16:39.116Z,23.56
2018-10-09T14:19:07.231Z,23.67
2018-10-09T14:21:34.933Z,23.46
2018-10-09T14:24:02.692Z,23.37
2018-10-09T14:26:30.406Z,23.53
2018-10-09T14:28:58.118Z,23.62
2018-10-09T14:31:25.959Z,23.68
2018-10-09T14:33:53.678Z,23.71
2018-10-09T14:36:21.425Z,23.41
2018-10-09T14:38:49.136Z,23.50
2018-10-09T14:41:16.871Z,22.74
2018-10-09T14:43:44.570Z,22.31
2018-10-09T14:46:12.281Z,22.16
2018-10-09T14:48:40.006Z,21.99
2018-10-09T14:51:07.785Z,21.98
2018-10-09T14:53:35.651Z,21.59
2018-10-09T14:56:03.450Z,21.51
2018-10-09T14:58:31.159Z,22.13
2018-10-09T15:00:58.926Z,22.32
2018-10-09T15:03:26.732Z,22.44
2018-10-09T15:05:54.380Z,22.38
2018-10-09T15:08:22.135Z,22.31
2018-10-09T15:10:49.891Z,22.13
2018-10-09T15:13:17.611Z,22.40
2018-10-09T15:15:45.326Z,22.55
2018-10-09T15:18:13.027Z,21.78
2018-10-09T15:20:40.740Z,22.71
2018-10-09T15:23:08.439Z,21.66
2018-10-09T15:25:36.141Z,21.74
2018-10-09T15:28:03.974Z,21.00
2018-10-09T15:30:31.766Z,20.63
2018-10-09T15:32:59.600Z,20.46
2018-10-09T15:35:27.438Z,20.32
2018-10-09T15:37:55.174Z,20.11
2018-10-09T15:40:22.887Z,19.92
2018-10-09T15:42:50.688Z,19.93
2018-10-09T15:45:18.427Z,19.92
2018-10-09T15:47:46.158Z,19.81
2018-10-09T15:50:13.880Z,19.78
2018-10-09T15:52:41.661Z,19.80
2018-10-09T15:55:09.391Z,19.70
2018-10-09T15:57:37.090Z,19.60
2018-10-09T16:00:05.204Z,19.47
2018-10-09T16:02:32.944Z,19.48
2018-10-09T16:05:00.667Z,19.50
2018-10-09T16:07:28.398Z,19.46
2018-10-09T16:09:56.145Z,19.38
2018-10-09T16:12:24.117Z,19.37
2018-10-09T16:14:51.829Z,19.36
2018-10-09T16:17:19.550Z,19.44
2018-10-09T16:19:47.363Z,19.22
2018-10-09T16:22:15.074Z,19.20
2018-10-09T16:24:42.770Z,19.21
2018-10-09T16:27:10.475Z,19.12
2018-10-09T16:29:38.454Z,19.19
2018-10-09T16:32:06.199Z,19.12
2018-10-09T16:34:33.906Z,19.21
2018-10-09T16:37:01.643Z,19.09
2018-10-09T16:39:29.333Z,19.11
2018-10-09T16:41:57.074Z,19.15
2018-10-09T16:44:24.814Z,19.12
2018-10-09T16:46:52.530Z,19.10
2018-10-09T16:49:20.278Z,18.87
2018-10-09T16:51:48.001Z,18.96
2018-10-09T16:54:15.726Z,18.94
2018-10-09T16:56:43.413Z,18.95
2018-10-09T16:59:11.110Z,18.82
2018-10-09T17:01:38.862Z,18.63
2018-10-09T17:04:06.570Z,18.69
2018-10-09T17:06:34.310Z,18.76
2018-10-09T17:09:02.042Z,18.71
2018-10-09T17:11:29.741Z,18.85
2018-10-09T17:13:57.434Z,18.72
2018-10-09T17:16:25.173Z,18.83
2018-10-09T17:18:52.902Z,18.81
2018-10-09T17:21:20.591Z,18.60
2018-10-09T17:23:48.321Z,18.57
2018-10-09T17:26:16.134Z,18.57
2018-10-09T17:28:44.302Z,18.56
2018-10-09T17:31:12.054Z,18.60
2018-10-09T17:33:40.827Z,18.45
2018-10-09T17:36:08.551Z,18.45
2018-10-09T17:38:36.362Z,18.27
2018-10-09T17:41:04.231Z,18.34
2018-10-09T17:43:32.556Z,18.36
2018-10-09T17:46:00.315Z,18.32
2018-10-09T17:48:28.055Z,18.31
2018-10-09T17:50:55.743Z,18.27
2018-10-09T17:53:23.442Z,18.22
2018-10-09T17:55:51.202Z,18.26
2018-10-09T17:58:18.899Z,18.21
2018-10-09T18:00:46.610Z,18.29
2018-10-09T18:03:14.391Z,18.20
2018-10-09T18:05:42.317Z,18.26
2018-10-09T18:08:10.030Z,18.02
2018-10-09T18:10:38.057Z,17.89
2018-10-09T18:13:05.915Z,17.77
2018-10-09T18:15:33.610Z,17.74
2018-10-09T18:18:01.753Z,17.76
2018-10-09T18:20:29.553Z,17.81
2018-10-09T18:22:57.198Z,17.71
2018-10-09T18:25:24.930Z,17.27
2018-10-09T18:27:52.639Z,17.57
2018-10-09T18:30:20.358Z,17.43
2018-10-09T18:32:48.233Z,17.33
2018-10-09T18:35:15.900Z,17.29
2018-10-09T18:37:43.632Z,17.28
2018-10-09T18:40:11.362Z,17.41
2018-10-09T18:42:39.409Z,17.21
2018-10-09T18:45:07.148Z,17.40
2018-10-09T18:47:41.615Z,17.32
2018-10-09T18:50:09.774Z,17.09
2018-10-09T18:52:37.950Z,16.94
2018-10-09T18:55:06.209Z,17.03
2018-10-09T18:57:33.973Z,17.03
2018-10-09T19:00:01.727Z,17.11
2018-10-09T19:02:29.465Z,16.93
2018-10-09T19:04:57.191Z,16.82
2018-10-09T19:07:24.925Z,16.98
2018-10-09T19:09:52.635Z,17.05
2018-10-09T19:12:20.363Z,17.11
2018-10-09T19:14:48.090Z,17.13
2018-10-09T19:17:15.853Z,17.05
2018-10-09T19:19:43.598Z,17.08
2018-10-09T19:22:11.306Z,17.13
2018-10-09T19:24:39.012Z,17.12
2018-10-09T19:27:06.778Z,17.32
2018-10-09T19:29:34.498Z,17.24
2018-10-09T19:32:02.335Z,17.27
2018-10-09T19:34:30.038Z,17.29
2018-10-09T19:36:57.741Z,17.24
2018-10-09T19:39:25.525Z,17.19
2018-10-09T19:41:53.261Z,17.26
2018-10-09T19:44:20.981Z,17.17
2018-10-09T19:46:48.692Z,17.11
2018-10-09T19:49:16.409Z,17.03
2018-10-09T19:51:44.148Z,16.98
2018-10-09T19:54:11.854Z,17.00
2018-10-09T19:56:39.583Z,17.10
2018-10-09T19:59:07.299Z,17.02
2018-10-09T20:01:35.186Z,16.92
2018-10-09T20:04:02.903Z,16.77
2018-10-09T20:06:31.047Z,16.67
2018-10-09T20:08:58.758Z,16.62
2018-10-09T20:11:26.496Z,16.62
2018-10-09T20:13:54.446Z,16.51
2018-10-09T20:16:22.142Z,16.09
2018-10-09T20:18:49.858Z,16.10
2018-10-09T20:21:17.562Z,16.15
2018-10-09T20:23:45.270Z,16.13
2018-10-09T20:26:13.006Z,15.59
2018-10-09T20:28:40.739Z,15.81
2018-10-09T20:31:08.455Z,15.38
2018-10-09T20:33:36.158Z,15.37
2018-10-09T20:36:03.906Z,15.48
2018-10-09T20:38:31.616Z,15.32
2018-10-09T20:40:59.525Z,15.30
2018-10-09T20:43:27.229Z,15.39
2018-10-09T20:45:54.932Z,15.07
2018-10-09T20:48:22.634Z,15.27
2018-10-09T20:50:50.352Z,15.24
2018-10-09T20:53:18.046Z,15.12
2018-10-09T20:55:45.845Z,15.14
2018-10-09T20:58:13.569Z,15.48
2018-10-09T21:00:41.301Z,15.17
2018-10-09T21:03:09.001Z,14.62
2018-10-09T21:05:36.753Z,14.69
2018-10-09T21:08:05.470Z,14.44
2018-10-09T21:10:33.203Z,14.43
2018-10-09T21:13:00.901Z,14.54
2018-10-09T21:15:28.606Z,14.51
2018-10-09T21:17:56.359Z,14.21
2018-10-09T21:20:24.078Z,14.05
2018-10-09T21:22:51.790Z,14.01
2018-10-09T21:25:19.583Z,14.01
2018-10-09T21:27:47.347Z,14.13
2018-10-09T21:30:15.053Z,14.16
2018-10-09T21:32:42.782Z,14.04
2018-10-09T21:35:10.486Z,13.88
2018-10-09T21:37:38.181Z,13.70
2018-10-09T21:40:06.368Z,13.89
2018-10-09T21:42:34.073Z,13.88
2018-10-09T21:45:01.777Z,13.97
2018-10-09T21:47:29.504Z,13.85
2018-10-09T21:49:57.299Z,13.88
2018-10-09T21:52:25.014Z,13.95
2018-10-09T21:54:52.742Z,13.79
2018-10-09T21:57:20.445Z,13.90
2018-10-09T21:59:48.174Z,13.68
2018-10-09T22:02:15.918Z,13.30
2018-10-09T22:04:43.617Z,13.22
2018-10-09T22:07:14.414Z,13.23
2018-10-09T22:09:42.337Z,13.38
2018-10-09T22:12:10.048Z,13.55
2018-10-09T22:14:37.746Z,13.73
2018-10-09T22:17:05.678Z,13.35
2018-10-09T22:19:33.458Z,13.41
2018-10-09T22:22:01.175Z,13.53
2018-10-09T22:24:29.073Z,13.50
2018-10-09T22:26:56.701Z,13.32
2018-10-09T22:29:24.403Z,13.42
2018-10-09T22:31:52.105Z,13.30
2018-10-09T22:34:19.786Z,13.25
2018-10-09T22:36:47.504Z,13.08
2018-10-09T22:39:15.203Z,13.14
2018-10-09T22:41:42.935Z,12.89
2018-10-09T22:44:10.663Z,13.18
2018-10-09T22:46:38.361Z,13.06
2018-10-09T22:49:06.143Z,12.93
2018-10-09T22:51:33.874Z,12.89
2018-10-09T22:54:01.570Z,12.88
2018-10-09T22:56:29.257Z,12.90
2018-10-09T22:58:56.980Z,13.04
2018-10-09T23:01:24.682Z,12.85
2018-10-09T23:03:52.398Z,12.98
2018-10-09T23:06:20.142Z,13.29
2018-10-09T23:08:47.831Z,13.07
2018-10-09T23:11:15.546Z,12.85
2018-10-09T23:13:43.255Z,12.85
2018-10-09T23:16:10.981Z,13.03
2018-10-09T23:18:38.686Z,12.90
2018-10-09T23:21:09.626Z,12.91
2018-10-09T23:23:37.386Z,13.13
2018-10-09T23:26:05.163Z,13.15
2018-10-09T23:28:32.867Z,13.07
2018-10-09T23:31:00.592Z,13.08
2018-10-09T23:33:28.331Z,13.16
2018-10-09T23:35:56.046Z,13.15
2018-10-09T23:38:23.784Z,13.23
2018-10-09T23:40:51.501Z,13.19
2018-10-09T23:43:19.238Z,13.13
2018-10-09T23:45:47.543Z,13.25
2018-10-09T23:48:15.234Z,13.30
2018-10-09T23:50:42.946Z,13.30
2018-10-09T23:53:10.653Z,13.38
2018-10-09T23:55:38.395Z,13.40
2018-10-09T23:58:06.625Z,13.16
